HAZ4909 ZYTX-ZYHB
Flight info
| Callsign | HAZ4909 |
|---|---|
| Flight time | N/A |
| Altitude | 37100 |
| Route | LEM61D LEMOT A588 NULRA W206 MAGBI W656 ISLUK W629 LARUN LAR09A |
| Aircraft | A321/M-SDE3FGHIRWY/LB1 |
Departure
| Time | N/A |
|---|---|
| Airport | Shenyang Taoxian International Airport (ZYTX) |
Arrival
| Time | 2026-04-27 12:43 |
|---|---|
| Airport | Harbin Taiping International Airport (ZYHB) |
| Time | Latitude | Longitude | Altitude | Speed | Heading |
|---|---|---|---|---|---|
| 2026-04-27 11:49 | 41.83930 | 124.18242 | 17524 ft | 408 kts | 73° |
| 2026-04-27 11:49 | 41.84752 | 124.21910 | 18077 ft | 413 kts | 73° |
| 2026-04-27 11:50 | 41.85580 | 124.25620 | 18545 ft | 418 kts | 73° |
| 2026-04-27 11:50 | 41.86418 | 124.29379 | 19021 ft | 422 kts | 73° |
| 2026-04-27 11:50 | 41.87260 | 124.33168 | 19569 ft | 424 kts | 73° |
| 2026-04-27 11:50 | 41.88098 | 124.36974 | 20092 ft | 427 kts | 74° |
| 2026-04-27 11:51 | 41.88931 | 124.40764 | 20596 ft | 430 kts | 74° |
| 2026-04-27 11:51 | 41.89776 | 124.44619 | 21196 ft | 431 kts | 75° |
| 2026-04-27 11:51 | 41.91477 | 124.52387 | 22246 ft | 437 kts | 75° |
| 2026-04-27 11:52 | 41.92338 | 124.56316 | 22748 ft | 440 kts | 75° |
| 2026-04-27 11:52 | 41.93308 | 124.60228 | 23228 ft | 444 kts | 69° |
| 2026-04-27 11:52 | 41.94743 | 124.63923 | 23675 ft | 449 kts | 58° |
| 2026-04-27 11:52 | 41.96648 | 124.67275 | 24044 ft | 454 kts | 48° |
| 2026-04-27 11:53 | 41.98978 | 124.70160 | 24425 ft | 459 kts | 38° |
| 2026-04-27 11:53 | 42.01641 | 124.72448 | 24771 ft | 463 kts | 28° |
| 2026-04-27 11:53 | 42.04522 | 124.74411 | 25135 ft | 466 kts | 27° |
| 2026-04-27 11:53 | 42.07424 | 124.76388 | 25498 ft | 469 kts | 27° |
| 2026-04-27 11:54 | 42.10342 | 124.78389 | 25852 ft | 472 kts | 27° |
| 2026-04-27 11:54 | 42.13274 | 124.80408 | 26207 ft | 475 kts | 27° |
| 2026-04-27 11:54 | 42.16228 | 124.82445 | 26558 ft | 478 kts | 27° |
| 2026-04-27 11:54 | 42.19206 | 124.84500 | 26872 ft | 483 kts | 27° |
| 2026-04-27 11:55 | 42.22206 | 124.86568 | 27200 ft | 486 kts | 27° |
| 2026-04-27 11:55 | 42.25225 | 124.88648 | 27547 ft | 488 kts | 27° |
| 2026-04-27 11:55 | 42.28208 | 124.90704 | 28021 ft | 488 kts | 27° |
| 2026-04-27 11:55 | 42.31228 | 124.92790 | 28466 ft | 488 kts | 27° |
| 2026-04-27 11:56 | 42.34187 | 124.94839 | 28880 ft | 489 kts | 28° |
| 2026-04-27 11:56 | 42.37229 | 124.96949 | 29075 ft | 492 kts | 28° |
| 2026-04-27 11:56 | 42.40277 | 124.99066 | 29099 ft | 492 kts | 28° |
| 2026-04-27 11:57 | 42.46372 | 125.03308 | 29102 ft | 493 kts | 28° |
| 2026-04-27 11:57 | 42.52428 | 125.07529 | 29113 ft | 494 kts | 28° |
| 2026-04-27 11:58 | 42.58537 | 125.11788 | 29105 ft | 493 kts | 28° |
| 2026-04-27 11:58 | 42.64904 | 125.15205 | 29105 ft | 494 kts | 14° |
| 2026-04-27 11:59 | 42.71709 | 125.16574 | 29109 ft | 496 kts | 6° |
| 2026-04-27 11:59 | 42.78525 | 125.17692 | 29106 ft | 492 kts | 8° |
| 2026-04-27 11:59 | 42.81811 | 125.18636 | 29107 ft | 474 kts | 16° |
| 2026-04-27 12:00 | 42.84907 | 125.20125 | 29112 ft | 477 kts | 24° |
| 2026-04-27 12:00 | 42.90516 | 125.23954 | 29118 ft | 496 kts | 28° |
| 2026-04-27 12:01 | 42.96261 | 125.27946 | 29114 ft | 501 kts | 28° |
| 2026-04-27 12:01 | 43.02271 | 125.32104 | 29109 ft | 496 kts | 28° |
| 2026-04-27 12:02 | 43.08416 | 125.36381 | 29113 ft | 496 kts | 27° |
| 2026-04-27 12:02 | 43.14555 | 125.40683 | 29113 ft | 496 kts | 27° |
| 2026-04-27 12:03 | 43.20694 | 125.44992 | 29113 ft | 496 kts | 27° |
| 2026-04-27 12:03 | 43.26800 | 125.49278 | 29117 ft | 496 kts | 27° |
| 2026-04-27 12:04 | 43.32939 | 125.53604 | 29116 ft | 496 kts | 27° |
| 2026-04-27 12:04 | 43.39082 | 125.57940 | 29118 ft | 496 kts | 27° |
| 2026-04-27 12:05 | 43.45225 | 125.62283 | 29118 ft | 496 kts | 27° |
| 2026-04-27 12:05 | 43.51326 | 125.66609 | 29121 ft | 496 kts | 27° |
| 2026-04-27 12:06 | 43.57459 | 125.70978 | 29122 ft | 496 kts | 27° |
| 2026-04-27 12:06 | 43.63547 | 125.75311 | 29120 ft | 485 kts | 27° |
| 2026-04-27 12:07 | 43.69476 | 125.79538 | 29125 ft | 477 kts | 27° |
| 2026-04-27 12:07 | 43.75386 | 125.83674 | 29126 ft | 476 kts | 22° |
| 2026-04-27 12:08 | 43.81729 | 125.86092 | 29130 ft | 480 kts | 6° |
| 2026-04-27 12:08 | 43.88355 | 125.87422 | 29130 ft | 482 kts | 7° |
| 2026-04-27 12:09 | 43.94795 | 125.89983 | 29123 ft | 485 kts | 24° |
| 2026-04-27 12:09 | 44.00480 | 125.95002 | 29113 ft | 487 kts | 38° |
| 2026-04-27 12:10 | 44.05878 | 126.00561 | 29109 ft | 486 kts | 29° |
| 2026-04-27 12:10 | 44.12108 | 126.04090 | 29109 ft | 483 kts | 12° |
| 2026-04-27 12:11 | 44.18692 | 126.05684 | 29147 ft | 479 kts | 6° |
| 2026-04-27 12:11 | 44.25262 | 126.07151 | 29155 ft | 477 kts | 6° |
| 2026-04-27 12:12 | 44.31772 | 126.08598 | 29152 ft | 476 kts | 6° |
| 2026-04-27 12:12 | 44.38306 | 126.10043 | 29145 ft | 475 kts | 6° |
| 2026-04-27 12:13 | 44.44836 | 126.11484 | 29134 ft | 475 kts | 6° |
| 2026-04-27 12:13 | 44.51356 | 126.12925 | 29131 ft | 474 kts | 6° |
| 2026-04-27 12:14 | 44.57871 | 126.14371 | 29128 ft | 474 kts | 6° |
| 2026-04-27 12:14 | 44.64329 | 126.15821 | 29269 ft | 474 kts | 6° |
| 2026-04-27 12:14 | 44.67585 | 126.16549 | 29785 ft | 473 kts | 6° |
| 2026-04-27 12:15 | 44.70831 | 126.17276 | 30224 ft | 472 kts | 5° |
| 2026-04-27 12:15 | 44.74089 | 126.17733 | 30625 ft | 469 kts | 0° |
| 2026-04-27 12:15 | 44.77342 | 126.18030 | 31073 ft | 467 kts | 1° |
| 2026-04-27 12:15 | 44.80571 | 126.18322 | 31600 ft | 463 kts | 1° |
| 2026-04-27 12:16 | 44.83769 | 126.18610 | 32139 ft | 459 kts | 1° |
| 2026-04-27 12:16 | 44.86954 | 126.18897 | 32612 ft | 457 kts | 2° |
| 2026-04-27 12:16 | 44.90082 | 126.19180 | 33053 ft | 456 kts | 2° |
| 2026-04-27 12:16 | 44.93245 | 126.19469 | 33493 ft | 455 kts | 2° |
| 2026-04-27 12:17 | 44.96393 | 126.19758 | 33680 ft | 451 kts | 2° |
| 2026-04-27 12:17 | 44.99522 | 126.19994 | 32858 ft | 450 kts | 357° |
| 2026-04-27 12:17 | 45.02596 | 126.19302 | 32019 ft | 447 kts | 340° |
| 2026-04-27 12:17 | 45.05359 | 126.17377 | 31234 ft | 443 kts | 323° |
| 2026-04-27 12:18 | 45.07587 | 126.14417 | 30448 ft | 439 kts | 306° |
| 2026-04-27 12:18 | 45.09085 | 126.10754 | 29600 ft | 436 kts | 290° |
| 2026-04-27 12:18 | 45.09996 | 126.06666 | 28604 ft | 437 kts | 286° |
| 2026-04-27 12:18 | 45.10827 | 126.02595 | 28383 ft | 423 kts | 286° |
| 2026-04-27 12:19 | 45.11617 | 125.98671 | 28236 ft | 407 kts | 285° |
| 2026-04-27 12:19 | 45.12377 | 125.94879 | 28095 ft | 393 kts | 285° |
| 2026-04-27 12:19 | 45.13110 | 125.91220 | 27959 ft | 379 kts | 286° |
| 2026-04-27 12:19 | 45.13910 | 125.87731 | 27817 ft | 366 kts | 294° |
| 2026-04-27 12:20 | 45.15174 | 125.84666 | 27505 ft | 359 kts | 307° |
| 2026-04-27 12:20 | 45.16741 | 125.81939 | 27059 ft | 355 kts | 310° |
| 2026-04-27 12:20 | 45.18610 | 125.79711 | 26611 ft | 353 kts | 333° |
| 2026-04-27 12:20 | 45.20933 | 125.78917 | 26339 ft | 348 kts | 0° |
| 2026-04-27 12:21 | 45.23241 | 125.79706 | 26207 ft | 341 kts | 25° |
| 2026-04-27 12:21 | 45.25191 | 125.81537 | 26076 ft | 333 kts | 38° |
| 2026-04-27 12:21 | 45.26859 | 125.83746 | 25926 ft | 324 kts | 43° |
| 2026-04-27 12:21 | 45.28418 | 125.86018 | 25640 ft | 319 kts | 43° |
| 2026-04-27 12:22 | 45.29979 | 125.88234 | 25301 ft | 316 kts | 41° |
| 2026-04-27 12:22 | 45.31577 | 125.90349 | 24954 ft | 312 kts | 37° |
| 2026-04-27 12:22 | 45.33216 | 125.92375 | 24572 ft | 311 kts | 38° |
| 2026-04-27 12:22 | 45.34887 | 125.94357 | 23701 ft | 327 kts | 37° |
| 2026-04-27 12:23 | 45.36708 | 125.96462 | 22572 ft | 345 kts | 37° |
| 2026-04-27 12:23 | 45.38618 | 125.98652 | 21479 ft | 360 kts | 37° |
| 2026-04-27 12:23 | 45.40605 | 126.00932 | 20350 ft | 374 kts | 37° |
| 2026-04-27 12:23 | 45.42661 | 126.03301 | 19178 ft | 387 kts | 38° |
| 2026-04-27 12:24 | 45.44781 | 126.05756 | 17910 ft | 399 kts | 38° |
| 2026-04-27 12:24 | 45.46953 | 126.08281 | 16776 ft | 405 kts | 38° |
| 2026-04-27 12:24 | 45.49124 | 126.10809 | 15980 ft | 401 kts | 38° |
| 2026-04-27 12:24 | 45.51243 | 126.13282 | 15258 ft | 397 kts | 39° |
| 2026-04-27 12:25 | 45.53359 | 126.15772 | 14553 ft | 392 kts | 39° |
| 2026-04-27 12:25 | 45.55428 | 126.18203 | 13870 ft | 388 kts | 39° |
| 2026-04-27 12:25 | 45.57529 | 126.20650 | 13070 ft | 383 kts | 39° |
| 2026-04-27 12:25 | 45.59584 | 126.23046 | 12276 ft | 380 kts | 39° |
| 2026-04-27 12:26 | 45.61623 | 126.25421 | 11509 ft | 377 kts | 38° |
| 2026-04-27 12:26 | 45.63656 | 126.27762 | 10761 ft | 374 kts | 38° |
| 2026-04-27 12:26 | 45.65671 | 126.30082 | 10040 ft | 371 kts | 38° |
| 2026-04-27 12:26 | 45.67832 | 126.32047 | 9278 ft | 367 kts | 24° |
| 2026-04-27 12:27 | 45.70230 | 126.33029 | 8572 ft | 363 kts | 7° |
| 2026-04-27 12:27 | 45.72734 | 126.32920 | 7856 ft | 360 kts | 349° |
| 2026-04-27 12:27 | 45.75072 | 126.31675 | 7160 ft | 359 kts | 331° |
| 2026-04-27 12:27 | 45.77002 | 126.29432 | 6469 ft | 359 kts | 313° |
| 2026-04-27 12:28 | 45.78538 | 126.26673 | 6076 ft | 346 kts | 312° |
| 2026-04-27 12:28 | 45.80099 | 126.24177 | 5982 ft | 326 kts | 314° |
| 2026-04-27 12:28 | 45.81571 | 126.21858 | 5993 ft | 304 kts | 314° |
| 2026-04-27 12:28 | 45.82946 | 126.19682 | 5995 ft | 285 kts | 314° |
| 2026-04-27 12:29 | 45.84228 | 126.17640 | 5993 ft | 267 kts | 314° |
| 2026-04-27 12:29 | 45.85426 | 126.15721 | 5997 ft | 250 kts | 314° |
| 2026-04-27 12:29 | 45.86527 | 126.13943 | 5997 ft | 234 kts | 314° |
| 2026-04-27 12:29 | 45.87460 | 126.12109 | 5998 ft | 227 kts | 297° |
| 2026-04-27 12:30 | 45.87779 | 126.09895 | 6002 ft | 231 kts | 269° |
| 2026-04-27 12:30 | 45.87339 | 126.07674 | 6005 ft | 236 kts | 240° |
| 2026-04-27 12:30 | 45.86203 | 126.05991 | 6005 ft | 238 kts | 210° |
| 2026-04-27 12:30 | 45.84647 | 126.05235 | 6007 ft | 238 kts | 189° |
| 2026-04-27 12:31 | 45.83012 | 126.04807 | 6006 ft | 239 kts | 189° |
| 2026-04-27 12:31 | 45.81374 | 126.04382 | 6004 ft | 239 kts | 187° |
| 2026-04-27 12:31 | 45.79730 | 126.04428 | 6005 ft | 237 kts | 169° |
| 2026-04-27 12:31 | 45.78173 | 126.05049 | 5990 ft | 235 kts | 155° |
| 2026-04-27 12:32 | 45.76650 | 126.05997 | 5384 ft | 246 kts | 150° |
| 2026-04-27 12:32 | 45.75117 | 126.07265 | 4599 ft | 263 kts | 144° |
| 2026-04-27 12:32 | 45.73563 | 126.08794 | 3726 ft | 279 kts | 140° |
| 2026-04-27 12:32 | 45.72022 | 126.10573 | 3086 ft | 285 kts | 137° |
| 2026-04-27 12:33 | 45.70527 | 126.12355 | 2912 ft | 273 kts | 137° |
| 2026-04-27 12:33 | 45.69165 | 126.14123 | 2899 ft | 255 kts | 131° |
| 2026-04-27 12:33 | 45.68251 | 126.16134 | 2902 ft | 231 kts | 102° |
| 2026-04-27 12:33 | 45.68191 | 126.18266 | 2907 ft | 212 kts | 77° |
| 2026-04-27 12:34 | 45.68286 | 126.20357 | 2904 ft | 215 kts | 98° |
| 2026-04-27 12:34 | 45.67589 | 126.22252 | 2909 ft | 222 kts | 133° |
| 2026-04-27 12:34 | 45.66226 | 126.23301 | 2911 ft | 228 kts | 168° |
| 2026-04-27 12:34 | 45.64659 | 126.23111 | 2912 ft | 228 kts | 203° |
| 2026-04-27 12:35 | 45.63336 | 126.22071 | 2936 ft | 207 kts | 214° |
| 2026-04-27 12:35 | 45.62321 | 126.20826 | 2922 ft | 181 kts | 235° |
| 2026-04-27 12:35 | 45.61635 | 126.19395 | 2906 ft | 170 kts | 240° |
| 2026-04-27 12:35 | 45.61006 | 126.17990 | 2907 ft | 167 kts | 239° |
| 2026-04-27 12:36 | 45.60305 | 126.16675 | 2904 ft | 166 kts | 234° |
| 2026-04-27 12:36 | 45.59585 | 126.15419 | 2911 ft | 163 kts | 233° |
| 2026-04-27 12:36 | 45.58830 | 126.14264 | 2907 ft | 158 kts | 222° |
| 2026-04-27 12:36 | 45.57958 | 126.13326 | 2906 ft | 156 kts | 217° |
| 2026-04-27 12:37 | 45.57050 | 126.12483 | 2906 ft | 156 kts | 205° |
| 2026-04-27 12:37 | 45.55999 | 126.12096 | 2908 ft | 157 kts | 195° |
| 2026-04-27 12:37 | 45.55022 | 126.11430 | 2913 ft | 156 kts | 213° |
| 2026-04-27 12:37 | 45.54116 | 126.10586 | 2910 ft | 155 kts | 216° |
| 2026-04-27 12:38 | 45.53224 | 126.09715 | 2909 ft | 155 kts | 216° |
| 2026-04-27 12:38 | 45.52346 | 126.08852 | 2908 ft | 155 kts | 216° |
| 2026-04-27 12:38 | 45.51459 | 126.07976 | 2909 ft | 155 kts | 216° |
| 2026-04-27 12:38 | 45.50573 | 126.07101 | 2906 ft | 155 kts | 216° |
| 2026-04-27 12:39 | 45.49589 | 126.06548 | 2900 ft | 155 kts | 172° |
| 2026-04-27 12:39 | 45.48673 | 126.07208 | 2907 ft | 147 kts | 126° |
| 2026-04-27 12:39 | 45.48289 | 126.08484 | 2909 ft | 138 kts | 88° |
| 2026-04-27 12:39 | 45.48520 | 126.09747 | 2906 ft | 131 kts | 53° |
| 2026-04-27 12:40 | 45.49181 | 126.10606 | 2905 ft | 129 kts | 36° |
| 2026-04-27 12:40 | 45.49846 | 126.11471 | 2774 ft | 130 kts | 43° |
| 2026-04-27 12:40 | 45.50483 | 126.12350 | 2450 ft | 128 kts | 39° |
| 2026-04-27 12:40 | 45.51156 | 126.13167 | 2173 ft | 126 kts | 37° |
| 2026-04-27 12:41 | 45.51844 | 126.13943 | 2005 ft | 126 kts | 36° |
| 2026-04-27 12:41 | 45.52532 | 126.14722 | 1826 ft | 127 kts | 37° |
| 2026-04-27 12:41 | 45.53209 | 126.15526 | 1590 ft | 127 kts | 36° |
| 2026-04-27 12:41 | 45.53883 | 126.16341 | 1421 ft | 127 kts | 38° |
| 2026-04-27 12:42 | 45.54575 | 126.17153 | 1144 ft | 130 kts | 38° |
| 2026-04-27 12:42 | 45.55269 | 126.17989 | 937 ft | 132 kts | 39° |
| 2026-04-27 12:42 | 45.55962 | 126.18815 | 757 ft | 131 kts | 38° |
| 2026-04-27 12:42 | 45.56677 | 126.19628 | 700 ft | 132 kts | 37° |
| 2026-04-27 12:43 | 45.57397 | 126.20456 | 639 ft | 133 kts | 39° |
| 2026-04-27 12:43 | 45.58100 | 126.21313 | 543 ft | 133 kts | 39° |
| 2026-04-27 12:43 | 45.58759 | 126.22109 | 493 ft | 102 kts | 38° |
| 2026-04-27 12:43 | 45.58987 | 126.22335 | 491 ft | 14 kts | 356° |
| 2026-04-27 12:44 | 45.59092 | 126.22362 | 482 ft | 16 kts | 15° |
| 2026-04-27 12:44 | 45.59098 | 126.22365 | 485 ft | 0 kts | 15° |
| 2026-04-27 12:45 | 45.59120 | 126.22373 | 484 ft | 7 kts | 15° |
| 2026-04-27 12:45 | 45.59196 | 126.22403 | 481 ft | 16 kts | 15° |
| 2026-04-27 12:45 | 45.59325 | 126.22471 | 485 ft | 24 kts | 34° |
| 2026-04-27 12:45 | 45.59475 | 126.22632 | 478 ft | 14 kts | 41° |
| 2026-04-27 12:46 | 45.59553 | 126.22737 | 475 ft | 20 kts | 44° |
| 2026-04-27 12:46 | 45.59623 | 126.22781 | 478 ft | 3 kts | 354° |
| 2026-04-27 12:46 | 45.59667 | 126.22764 | 478 ft | 11 kts | 355° |
| 2026-04-27 12:46 | 45.59744 | 126.22788 | 475 ft | 9 kts | 360° |
| 2026-04-27 12:47 | 45.59811 | 126.22712 | 478 ft | 16 kts | 310° |
| 2026-04-27 12:47 | 45.59904 | 126.22559 | 479 ft | 25 kts | 311° |
| 2026-04-27 12:47 | 45.60006 | 126.22419 | 475 ft | 13 kts | 351° |
| 2026-04-27 12:47 | 45.60107 | 126.22496 | 471 ft | 18 kts | 41° |
| 2026-04-27 12:48 | 45.60214 | 126.22463 | 471 ft | 21 kts | 315° |